sensor_id;sensor_type;location;lat;lon;timestamp;pressure;altitude;pressure_sealevel;temperature;humidity
7200;BME280;3641;49.082;8.200;2023-05-25T00:02:15;100813.13;;;11.56;56.44
7200;BME280;3641;49.082;8.200;2023-05-25T00:04:42;100806.16;;;11.54;58.56
7200;BME280;3641;49.082;8.200;2023-05-25T00:07:13;100805.56;;;11.67;56.37
7200;BME280;3641;49.082;8.200;2023-05-25T00:09:41;100815.06;;;11.48;60.72
7200;BME280;3641;49.082;8.200;2023-05-25T00:12:08;100806.00;;;11.47;60.67
7200;BME280;3641;49.082;8.200;2023-05-25T00:14:35;100812.78;;;11.28;61.57
7200;BME280;3641;49.082;8.200;2023-05-25T00:17:01;100810.91;;;11.29;61.97
7200;BME280;3641;49.082;8.200;2023-05-25T00:19:29;100814.28;;;11.31;60.81
7200;BME280;3641;49.082;8.200;2023-05-25T00:21:56;100809.22;;;11.19;61.29
7200;BME280;3641;49.082;8.200;2023-05-25T00:24:27;100816.44;;;11.43;59.78
7200;BME280;3641;49.082;8.200;2023-05-25T00:26:55;100814.34;;;11.54;57.79
7200;BME280;3641;49.082;8.200;2023-05-25T00:29:21;100809.88;;;11.84;56.39
7200;BME280;3641;49.082;8.200;2023-05-25T00:31:48;100815.44;;;11.68;60.96
7200;BME280;3641;49.082;8.200;2023-05-25T00:34:15;100816.38;;;11.29;63.33
7200;BME280;3641;49.082;8.200;2023-05-25T00:36:41;100810.41;;;11.25;59.94
7200;BME280;3641;49.082;8.200;2023-05-25T00:39:08;100809.63;;;11.71;57.25
7200;BME280;3641;49.082;8.200;2023-05-25T00:41:35;100812.78;;;11.82;57.33
7200;BME280;3641;49.082;8.200;2023-05-25T00:44:07;100805.84;;;11.72;57.10
7200;BME280;3641;49.082;8.200;2023-05-25T00:46:33;100811.00;;;11.90;56.16
7200;BME280;3641;49.082;8.200;2023-05-25T00:49:00;100810.19;;;11.89;59.04
7200;BME280;3641;49.082;8.200;2023-05-25T00:51:28;100810.97;;;11.43;62.80
7200;BME280;3641;49.082;8.200;2023-05-25T00:53:57;100812.72;;;11.05;62.53
7200;BME280;3641;49.082;8.200;2023-05-25T00:56:25;100815.69;;;11.26;62.35
7200;BME280;3641;49.082;8.200;2023-05-25T00:58:54;100811.00;;;11.04;63.21
7200;BME280;3641;49.082;8.200;2023-05-25T01:01:25;100809.09;;;10.65;64.90
7200;BME280;3641;49.082;8.200;2023-05-25T01:03:54;100815.53;;;10.72;64.22
7200;BME280;3641;49.082;8.200;2023-05-25T01:06:23;100823.09;;;10.53;65.08
7200;BME280;3641;49.082;8.200;2023-05-25T01:08:56;100813.06;;;10.46;64.99
7200;BME280;3641;49.082;8.200;2023-05-25T01:11:26;100808.09;;;10.41;66.17
7200;BME280;3641;49.082;8.200;2023-05-25T01:13:53;100821.41;;;10.44;65.33
7200;BME280;3641;49.082;8.200;2023-05-25T01:16:20;100813.41;;;10.26;66.29
7200;BME280;3641;49.082;8.200;2023-05-25T01:18:48;100819.38;;;10.22;66.52
7200;BME280;3641;49.082;8.200;2023-05-25T01:21:20;100814.41;;;10.17;67.32
7200;BME280;3641;49.082;8.200;2023-05-25T01:24:00;100817.84;;;10.35;65.95
7200;BME280;3641;49.082;8.200;2023-05-25T01:26:33;100809.81;;;10.42;64.59
7200;BME280;3641;49.082;8.200;2023-05-25T01:29:00;100810.84;;;10.41;65.29
7200;BME280;3641;49.082;8.200;2023-05-25T01:31:28;100814.25;;;10.27;67.70
7200;BME280;3641;49.082;8.200;2023-05-25T01:33:55;100815.59;;;10.14;67.33
7200;BME280;3641;49.082;8.200;2023-05-25T01:36:24;100816.09;;;10.51;64.89
7200;BME280;3641;49.082;8.200;2023-05-25T01:38:51;100815.09;;;10.19;67.25
7200;BME280;3641;49.082;8.200;2023-05-25T01:41:17;100816.31;;;10.16;66.81
7200;BME280;3641;49.082;8.200;2023-05-25T01:43:44;100826.38;;;10.41;64.62
7200;BME280;3641;49.082;8.200;2023-05-25T01:46:15;100830.41;;;10.69;63.14
7200;BME280;3641;49.082;8.200;2023-05-25T01:48:49;100826.34;;;10.57;65.27
7200;BME280;3641;49.082;8.200;2023-05-25T01:51:31;100823.63;;;10.49;65.78
7200;BME280;3641;49.082;8.200;2023-05-25T01:54:06;100824.81;;;10.63;64.49
7200;BME280;3641;49.082;8.200;2023-05-25T01:56:34;100825.00;;;10.36;65.88
7200;BME280;3641;49.082;8.200;2023-05-25T01:59:01;100815.78;;;10.21;66.17
7200;BME280;3641;49.082;8.200;2023-05-25T02:01:29;100825.50;;;10.57;62.83
7200;BME280;3641;49.082;8.200;2023-05-25T02:03:57;100821.25;;;10.29;66.27
7200;BME280;3641;49.082;8.200;2023-05-25T02:06:26;100826.50;;;10.23;66.49
7200;BME280;3641;49.082;8.200;2023-05-25T02:08:52;100816.63;;;10.22;66.33
7200;BME280;3641;49.082;8.200;2023-05-25T02:11:18;100826.19;;;10.42;63.67
7200;BME280;3641;49.082;8.200;2023-05-25T02:13:45;100819.00;;;10.08;68.23
7200;BME280;3641;49.082;8.200;2023-05-25T02:16:12;100825.84;;;10.21;67.77
7200;BME280;3641;49.082;8.200;2023-05-25T02:18:38;100815.25;;;10.09;68.35
7200;BME280;3641;49.082;8.200;2023-05-25T02:21:05;100814.09;;;10.12;68.21
7200;BME280;3641;49.082;8.200;2023-05-25T02:23:33;100808.97;;;10.09;68.06
7200;BME280;3641;49.082;8.200;2023-05-25T02:25:59;100806.22;;;9.68;70.05
7200;BME280;3641;49.082;8.200;2023-05-25T02:28:26;100816.31;;;10.33;62.88
7200;BME280;3641;49.082;8.200;2023-05-25T02:30:52;100819.34;;;10.30;67.46
7200;BME280;3641;49.082;8.200;2023-05-25T02:33:18;100818.31;;;10.14;68.27
7200;BME280;3641;49.082;8.200;2023-05-25T02:35:45;100817.50;;;10.06;67.26
7200;BME280;3641;49.082;8.200;2023-05-25T02:38:12;100819.38;;;10.05;68.11
7200;BME280;3641;49.082;8.200;2023-05-25T02:40:40;100813.38;;;9.93;70.23
7200;BME280;3641;49.082;8.200;2023-05-25T02:43:06;100812.53;;;10.01;67.96
7200;BME280;3641;49.082;8.200;2023-05-25T02:45:33;100811.00;;;9.98;69.72
7200;BME280;3641;49.082;8.200;2023-05-25T02:47:59;100804.69;;;9.98;69.57
7200;BME280;3641;49.082;8.200;2023-05-25T02:50:26;100810.50;;;9.87;70.84
7200;BME280;3641;49.082;8.200;2023-05-25T02:52:53;100802.31;;;9.95;71.03
7200;BME280;3641;49.082;8.200;2023-05-25T02:55:19;100812.88;;;9.90;70.21
7200;BME280;3641;49.082;8.200;2023-05-25T02:57:47;100808.28;;;9.98;67.27
7200;BME280;3641;49.082;8.200;2023-05-25T03:00:14;100817.13;;;9.76;71.54
7200;BME280;3641;49.082;8.200;2023-05-25T03:02:41;100806.56;;;9.81;71.11
7200;BME280;3641;49.082;8.200;2023-05-25T03:05:10;100800.09;;;9.98;67.95
7200;BME280;3641;49.082;8.200;2023-05-25T03:07:37;100816.78;;;9.79;72.12
7200;BME280;3641;49.082;8.200;2023-05-25T03:10:04;100805.03;;;9.87;71.08
7200;BME280;3641;49.082;8.200;2023-05-25T03:12:30;100813.56;;;9.92;67.79
7200;BME280;3641;49.082;8.200;2023-05-25T03:14:58;100813.53;;;9.59;72.24
7200;BME280;3641;49.082;8.200;2023-05-25T03:17:25;100799.22;;;9.65;72.15
7200;BME280;3641;49.082;8.200;2023-05-25T03:19:51;100813.72;;;9.66;72.00
7200;BME280;3641;49.082;8.200;2023-05-25T03:22:17;100818.00;;;9.93;66.91
7200;BME280;3641;49.082;8.200;2023-05-25T03:24:44;100817.13;;;9.84;71.53
7200;BME280;3641;49.082;8.200;2023-05-25T03:27:11;100831.59;;;9.76;68.88
7200;BME280;3641;49.082;8.200;2023-05-25T03:29:37;100829.06;;;9.75;70.65
7200;BME280;3641;49.082;8.200;2023-05-25T03:32:06;100833.31;;;9.69;71.39
7200;BME280;3641;49.082;8.200;2023-05-25T03:34:32;100835.88;;;9.71;72.63
7200;BME280;3641;49.082;8.200;2023-05-25T03:37:00;100840.13;;;9.73;72.17
7200;BME280;3641;49.082;8.200;2023-05-25T03:39:26;100841.13;;;9.56;74.22
7200;BME280;3641;49.082;8.200;2023-05-25T03:41:53;100840.97;;;9.57;74.36
7200;BME280;3641;49.082;8.200;2023-05-25T03:44:20;100851.88;;;9.74;73.38
7200;BME280;3641;49.082;8.200;2023-05-25T03:46:46;100859.56;;;9.70;73.41
7200;BME280;3641;49.082;8.200;2023-05-25T03:49:14;100856.28;;;9.58;74.41
7200;BME280;3641;49.082;8.200;2023-05-25T03:51:41;100861.72;;;9.58;73.59
7200;BME280;3641;49.082;8.200;2023-05-25T03:54:08;100863.91;;;9.47;74.97
7200;BME280;3641;49.082;8.200;2023-05-25T03:56:34;100861.22;;;9.55;74.23
7200;BME280;3641;49.082;8.200;2023-05-25T03:59:01;100857.78;;;9.44;74.88
7200;BME280;3641;49.082;8.200;2023-05-25T04:01:27;100850.69;;;9.17;76.17
7200;BME280;3641;49.082;8.200;2023-05-25T04:03:54;100858.22;;;9.32;76.34
7200;BME280;3641;49.082;8.200;2023-05-25T04:06:22;100849.22;;;9.39;75.53
7200;BME280;3641;49.082;8.200;2023-05-25T04:08:49;100849.06;;;9.41;75.25
7200;BME280;3641;49.082;8.200;2023-05-25T04:11:16;100857.94;;;9.43;75.91
7200;BME280;3641;49.082;8.200;2023-05-25T04:13:42;100850.13;;;9.56;75.06
7200;BME280;3641;49.082;8.200;2023-05-25T04:16:09;100849.31;;;9.72;73.21
7200;BME280;3641;49.082;8.200;2023-05-25T04:18:36;100846.91;;;9.61;74.16
7200;BME280;3641;49.082;8.200;2023-05-25T04:21:03;100857.47;;;9.56;74.04
7200;BME280;3641;49.082;8.200;2023-05-25T04:23:31;100863.00;;;9.38;76.08
7200;BME280;3641;49.082;8.200;2023-05-25T04:25:59;100858.13;;;9.41;76.08
7200;BME280;3641;49.082;8.200;2023-05-25T04:28:25;100850.59;;;9.35;76.92
7200;BME280;3641;49.082;8.200;2023-05-25T04:30:52;100860.69;;;9.51;74.48
7200;BME280;3641;49.082;8.200;2023-05-25T04:33:21;100859.44;;;9.37;76.77
7200;BME280;3641;49.082;8.200;2023-05-25T04:35:47;100864.56;;;9.40;75.74
7200;BME280;3641;49.082;8.200;2023-05-25T04:38:14;100866.75;;;9.29;76.13
7200;BME280;3641;49.082;8.200;2023-05-25T04:40:43;100871.84;;;9.32;77.14
7200;BME280;3641;49.082;8.200;2023-05-25T04:43:11;100880.44;;;9.53;74.55
7200;BME280;3641;49.082;8.200;2023-05-25T04:45:38;100865.41;;;9.41;76.31
7200;BME280;3641;49.082;8.200;2023-05-25T04:48:04;100871.09;;;9.56;75.31
7200;BME280;3641;49.082;8.200;2023-05-25T04:50:31;100876.66;;;9.46;76.20
7200;BME280;3641;49.082;8.200;2023-05-25T04:52:57;100877.34;;;9.40;76.49
7200;BME280;3641;49.082;8.200;2023-05-25T04:55:24;100877.38;;;9.48;76.40
7200;BME280;3641;49.082;8.200;2023-05-25T04:57:52;100884.72;;;9.56;75.98
7200;BME280;3641;49.082;8.200;2023-05-25T05:00:19;100881.47;;;9.52;75.54
7200;BME280;3641;49.082;8.200;2023-05-25T05:02:46;100880.63;;;9.60;75.78
7200;BME280;3641;49.082;8.200;2023-05-25T05:05:12;100885.09;;;9.69;75.46
7200;BME280;3641;49.082;8.200;2023-05-25T05:07:39;100896.69;;;9.71;75.82
7200;BME280;3641;49.082;8.200;2023-05-25T05:10:06;100889.88;;;9.67;75.73
7200;BME280;3641;49.082;8.200;2023-05-25T05:12:33;100888.50;;;9.71;75.43
7200;BME280;3641;49.082;8.200;2023-05-25T05:15:01;100885.47;;;9.82;75.07
7200;BME280;3641;49.082;8.200;2023-05-25T05:17:27;100891.28;;;9.88;75.09
7200;BME280;3641;49.082;8.200;2023-05-25T05:19:54;100892.31;;;10.03;74.00
7200;BME280;3641;49.082;8.200;2023-05-25T05:22:21;100900.16;;;9.90;74.34
7200;BME280;3641;49.082;8.200;2023-05-25T05:24:48;100902.22;;;9.96;74.62
7200;BME280;3641;49.082;8.200;2023-05-25T05:27:15;100900.72;;;10.18;71.97
7200;BME280;3641;49.082;8.200;2023-05-25T05:29:41;100904.28;;;10.27;72.19
7200;BME280;3641;49.082;8.200;2023-05-25T05:32:09;100904.28;;;10.27;73.05
7200;BME280;3641;49.082;8.200;2023-05-25T05:34:36;100911.78;;;10.25;72.99
7200;BME280;3641;49.082;8.200;2023-05-25T05:37:02;100910.81;;;10.34;72.72
7200;BME280;3641;49.082;8.200;2023-05-25T05:39:29;100915.91;;;10.53;72.34
7200;BME280;3641;49.082;8.200;2023-05-25T05:41:56;100917.81;;;10.61;71.86
7200;BME280;3641;49.082;8.200;2023-05-25T05:44:22;100912.69;;;10.58;71.44
7200;BME280;3641;49.082;8.200;2023-05-25T05:46:49;100913.19;;;10.62;71.64
7200;BME280;3641;49.082;8.200;2023-05-25T05:49:16;100920.50;;;10.78;70.40
7200;BME280;3641;49.082;8.200;2023-05-25T05:51:43;100922.34;;;11.02;69.95
7200;BME280;3641;49.082;8.200;2023-05-25T05:54:09;100928.66;;;10.94;70.11
7200;BME280;3641;49.082;8.200;2023-05-25T05:56:36;100922.47;;;11.08;69.38
7200;BME280;3641;49.082;8.200;2023-05-25T05:59:02;100923.63;;;11.31;67.32
7200;BME280;3641;49.082;8.200;2023-05-25T06:01:29;100936.31;;;11.23;68.44
7200;BME280;3641;49.082;8.200;2023-05-25T06:03:55;100941.75;;;11.15;69.04
7200;BME280;3641;49.082;8.200;2023-05-25T06:06:23;100932.59;;;11.56;67.11
7200;BME280;3641;49.082;8.200;2023-05-25T06:08:50;100933.88;;;11.76;66.50
7200;BME280;3641;49.082;8.200;2023-05-25T06:11:16;100934.31;;;11.88;65.68
7200;BME280;3641;49.082;8.200;2023-05-25T06:13:43;100941.88;;;12.17;65.09
7200;BME280;3641;49.082;8.200;2023-05-25T06:16:09;100949.94;;;12.57;64.83
7200;BME280;3641;49.082;8.200;2023-05-25T06:18:36;100949.03;;;13.92;59.70
7200;BME280;3641;49.082;8.200;2023-05-25T06:21:03;100952.56;;;15.51;53.81
7200;BME280;3641;49.082;8.200;2023-05-25T06:23:31;100952.34;;;16.96;50.56
7200;BME280;3641;49.082;8.200;2023-05-25T06:26:02;100951.41;;;16.28;49.86
7200;BME280;3641;49.082;8.200;2023-05-25T06:28:28;100949.19;;;17.12;49.28
7200;BME280;3641;49.082;8.200;2023-05-25T06:30:55;100951.22;;;15.75;51.80
7200;BME280;3641;49.082;8.200;2023-05-25T06:33:21;100953.16;;;14.61;54.54
7200;BME280;3641;49.082;8.200;2023-05-25T06:35:48;100949.25;;;14.99;54.77
7200;BME280;3641;49.082;8.200;2023-05-25T06:38:14;100954.00;;;14.19;56.94
7200;BME280;3641;49.082;8.200;2023-05-25T06:40:42;100951.03;;;13.69;58.59
7200;BME280;3641;49.082;8.200;2023-05-25T06:43:09;100956.81;;;13.29;59.84
7200;BME280;3641;49.082;8.200;2023-05-25T06:45:35;100950.38;;;13.07;59.99
7200;BME280;3641;49.082;8.200;2023-05-25T06:48:02;100946.50;;;13.16;59.72
7200;BME280;3641;49.082;8.200;2023-05-25T06:50:28;100953.84;;;13.01;60.38
7200;BME280;3641;49.082;8.200;2023-05-25T06:52:55;100945.72;;;13.07;60.39
7200;BME280;3641;49.082;8.200;2023-05-25T06:55:21;100950.03;;;13.02;59.12
7200;BME280;3641;49.082;8.200;2023-05-25T06:57:49;100943.53;;;13.03;60.05
7200;BME280;3641;49.082;8.200;2023-05-25T07:00:16;100943.34;;;13.19;59.61
7200;BME280;3641;49.082;8.200;2023-05-25T07:02:43;100942.72;;;13.17;59.65
7200;BME280;3641;49.082;8.200;2023-05-25T07:05:10;100940.94;;;13.24;59.34
7200;BME280;3641;49.082;8.200;2023-05-25T07:07:37;100936.69;;;13.37;58.39
7200;BME280;3641;49.082;8.200;2023-05-25T07:10:04;100938.78;;;13.35;58.07
7200;BME280;3641;49.082;8.200;2023-05-25T07:12:30;100935.56;;;13.46;58.32
7200;BME280;3641;49.082;8.200;2023-05-25T07:14:58;100929.78;;;13.41;58.05
7200;BME280;3641;49.082;8.200;2023-05-25T07:17:25;100944.38;;;13.56;58.27
7200;BME280;3641;49.082;8.200;2023-05-25T07:19:52;100939.44;;;13.52;57.63
7200;BME280;3641;49.082;8.200;2023-05-25T07:22:19;100939.16;;;13.61;57.20
7200;BME280;3641;49.082;8.200;2023-05-25T07:24:47;100934.41;;;13.70;57.37
7200;BME280;3641;49.082;8.200;2023-05-25T07:27:14;100931.44;;;13.87;57.08
7200;BME280;3641;49.082;8.200;2023-05-25T07:29:41;100933.69;;;13.98;57.04
7200;BME280;3641;49.082;8.200;2023-05-25T07:32:09;100936.91;;;14.02;57.40
7200;BME280;3641;49.082;8.200;2023-05-25T07:34:35;100943.91;;;14.04;57.17
7200;BME280;3641;49.082;8.200;2023-05-25T07:37:02;100936.13;;;14.08;56.76
7200;BME280;3641;49.082;8.200;2023-05-25T07:39:29;100943.78;;;14.12;56.70
7200;BME280;3641;49.082;8.200;2023-05-25T07:41:55;100942.53;;;14.15;56.90
7200;BME280;3641;49.082;8.200;2023-05-25T07:44:22;100944.69;;;14.20;56.54
7200;BME280;3641;49.082;8.200;2023-05-25T07:46:48;100936.31;;;14.28;55.88
7200;BME280;3641;49.082;8.200;2023-05-25T07:49:16;100943.19;;;14.39;55.38
7200;BME280;3641;49.082;8.200;2023-05-25T07:51:43;100945.56;;;14.42;56.20
7200;BME280;3641;49.082;8.200;2023-05-25T07:54:10;100942.41;;;14.45;56.30
7200;BME280;3641;49.082;8.200;2023-05-25T07:56:36;100959.88;;;14.59;55.85
7200;BME280;3641;49.082;8.200;2023-05-25T07:59:03;100942.09;;;14.54;54.45
7200;BME280;3641;49.082;8.200;2023-05-25T08:01:34;100933.53;;;14.64;54.90
7200;BME280;3641;49.082;8.200;2023-05-25T08:04:01;100938.09;;;14.57;54.97
7200;BME280;3641;49.082;8.200;2023-05-25T08:06:29;100943.34;;;14.74;54.56
7200;BME280;3641;49.082;8.200;2023-05-25T08:08:56;100939.91;;;14.93;54.77
7200;BME280;3641;49.082;8.200;2023-05-25T08:11:23;100937.22;;;15.00;54.37
7200;BME280;3641;49.082;8.200;2023-05-25T08:13:50;100938.88;;;14.94;54.86
7200;BME280;3641;49.082;8.200;2023-05-25T08:16:17;100931.81;;;15.13;53.70
7200;BME280;3641;49.082;8.200;2023-05-25T08:18:43;100938.06;;;15.29;53.03
7200;BME280;3641;49.082;8.200;2023-05-25T08:21:10;100942.25;;;15.24;53.68
7200;BME280;3641;49.082;8.200;2023-05-25T08:23:38;100942.06;;;15.26;53.61
7200;BME280;3641;49.082;8.200;2023-05-25T08:26:06;100948.72;;;15.45;53.79
7200;BME280;3641;49.082;8.200;2023-05-25T08:28:33;100939.22;;;15.48;53.11
7200;BME280;3641;49.082;8.200;2023-05-25T08:30:59;100934.56;;;15.48;52.85
7200;BME280;3641;49.082;8.200;2023-05-25T08:33:26;100948.16;;;15.56;52.75
7200;BME280;3641;49.082;8.200;2023-05-25T08:35:53;100938.66;;;15.59;53.83
7200;BME280;3641;49.082;8.200;2023-05-25T08:38:19;100948.63;;;15.67;53.52
7200;BME280;3641;49.082;8.200;2023-05-25T08:41:01;100954.44;;;15.78;51.69
7200;BME280;3641;49.082;8.200;2023-05-25T08:43:28;100954.81;;;15.75;53.18
7200;BME280;3641;49.082;8.200;2023-05-25T08:45:58;100950.41;;;15.81;52.26
7200;BME280;3641;49.082;8.200;2023-05-25T08:48:29;100954.22;;;15.80;53.90
7200;BME280;3641;49.082;8.200;2023-05-25T08:50:58;100956.88;;;16.08;51.60
7200;BME280;3641;49.082;8.200;2023-05-25T08:53:27;100953.69;;;16.11;51.51
7200;BME280;3641;49.082;8.200;2023-05-25T08:55:57;100956.88;;;16.08;52.62
7200;BME280;3641;49.082;8.200;2023-05-25T08:58:29;100964.38;;;16.34;51.55
7200;BME280;3641;49.082;8.200;2023-05-25T09:00:58;100961.19;;;16.31;51.15
7200;BME280;3641;49.082;8.200;2023-05-25T09:03:28;100956.53;;;16.38;52.03
7200;BME280;3641;49.082;8.200;2023-05-25T09:05:56;100955.69;;;16.44;52.49
7200;BME280;3641;49.082;8.200;2023-05-25T09:08:23;100958.03;;;16.61;50.11
7200;BME280;3641;49.082;8.200;2023-05-25T09:10:51;100952.94;;;16.58;50.71
7200;BME280;3641;49.082;8.200;2023-05-25T09:13:20;100951.06;;;16.65;50.27
7200;BME280;3641;49.082;8.200;2023-05-25T09:15:47;100951.94;;;16.72;50.21
7200;BME280;3641;49.082;8.200;2023-05-25T09:18:13;100951.47;;;16.75;50.96
7200;BME280;3641;49.082;8.200;2023-05-25T09:20:40;100954.88;;;16.84;49.45
7200;BME280;3641;49.082;8.200;2023-05-25T09:23:08;100953.38;;;16.81;50.72
7200;BME280;3641;49.082;8.200;2023-05-25T09:25:35;100952.38;;;17.02;49.45
7200;BME280;3641;49.082;8.200;2023-05-25T09:28:02;100956.59;;;17.05;48.91
7200;BME280;3641;49.082;8.200;2023-05-25T09:30:30;100950.66;;;17.01;49.56
7200;BME280;3641;49.082;8.200;2023-05-25T09:33:08;100952.34;;;17.22;49.64
7200;BME280;3641;49.082;8.200;2023-05-25T09:35:35;100956.16;;;17.28;50.18
7200;BME280;3641;49.082;8.200;2023-05-25T09:38:01;100949.34;;;17.44;48.76
7200;BME280;3641;49.082;8.200;2023-05-25T09:40:29;100954.59;;;17.59;49.18
7200;BME280;3641;49.082;8.200;2023-05-25T09:42:56;100950.16;;;17.51;49.41
7200;BME280;3641;49.082;8.200;2023-05-25T09:45:23;100948.63;;;17.69;48.02
7200;BME280;3641;49.082;8.200;2023-05-25T09:47:54;100947.91;;;17.87;47.19
7200;BME280;3641;49.082;8.200;2023-05-25T09:50:21;100946.84;;;17.94;48.59
7200;BME280;3641;49.082;8.200;2023-05-25T09:52:47;100945.72;;;18.09;47.17
7200;BME280;3641;49.082;8.200;2023-05-25T09:55:14;100940.88;;;18.36;45.81
7200;BME280;3641;49.082;8.200;2023-05-25T09:57:42;100944.09;;;18.33;45.97
7200;BME280;3641;49.082;8.200;2023-05-25T10:00:09;100939.53;;;18.13;46.39
7200;BME280;3641;49.082;8.200;2023-05-25T10:02:37;100948.66;;;18.46;45.54
7200;BME280;3641;49.082;8.200;2023-05-25T10:05:05;100945.06;;;18.45;46.20
7200;BME280;3641;49.082;8.200;2023-05-25T10:07:33;100944.84;;;18.47;46.08
7200;BME280;3641;49.082;8.200;2023-05-25T10:10:04;100932.94;;;18.46;47.04
7200;BME280;3641;49.082;8.200;2023-05-25T10:12:32;100933.31;;;18.82;44.64
7200;BME280;3641;49.082;8.200;2023-05-25T10:15:02;100926.72;;;18.83;45.16
7200;BME280;3641;49.082;8.200;2023-05-25T10:17:30;100933.44;;;18.94;44.40
7200;BME280;3641;49.082;8.200;2023-05-25T10:20:04;100936.94;;;19.08;45.95
7200;BME280;3641;49.082;8.200;2023-05-25T10:22:35;100939.59;;;19.39;44.71
7200;BME280;3641;49.082;8.200;2023-05-25T10:25:08;100943.31;;;19.52;43.06
7200;BME280;3641;49.082;8.200;2023-05-25T10:27:38;100936.75;;;19.46;44.88
7200;BME280;3641;49.082;8.200;2023-05-25T10:30:07;100947.00;;;19.46;46.81
7200;BME280;3641;49.082;8.200;2023-05-25T10:32:35;100940.41;;;19.84;43.86
7200;BME280;3641;49.082;8.200;2023-05-25T10:35:02;100947.09;;;19.94;43.81
7200;BME280;3641;49.082;8.200;2023-05-25T10:37:30;100940.59;;;20.01;43.03
7200;BME280;3641;49.082;8.200;2023-05-25T10:40:00;100940.84;;;19.99;43.70
7200;BME280;3641;49.082;8.200;2023-05-25T10:42:27;100943.69;;;19.92;44.51
7200;BME280;3641;49.082;8.200;2023-05-25T10:44:54;100941.28;;;20.14;42.89
7200;BME280;3641;49.082;8.200;2023-05-25T10:47:22;100933.19;;;20.13;42.13
7200;BME280;3641;49.082;8.200;2023-05-25T10:49:53;100929.38;;;20.26;42.08
7200;BME280;3641;49.082;8.200;2023-05-25T10:52:20;100927.41;;;20.14;45.36
7200;BME280;3641;49.082;8.200;2023-05-25T10:54:47;100932.03;;;20.21;42.20
7200;BME280;3641;49.082;8.200;2023-05-25T10:57:19;100935.56;;;20.28;42.71
7200;BME280;3641;49.082;8.200;2023-05-25T10:59:49;100941.09;;;20.58;41.85
7200;BME280;3641;49.082;8.200;2023-05-25T11:02:16;100949.00;;;20.43;44.36
7200;BME280;3641;49.082;8.200;2023-05-25T11:04:47;100942.19;;;20.69;43.04
7200;BME280;3641;49.082;8.200;2023-05-25T11:07:15;100936.28;;;20.77;41.44
7200;BME280;3641;49.082;8.200;2023-05-25T11:09:55;100934.28;;;20.42;44.36
7200;BME280;3641;49.082;8.200;2023-05-25T11:12:25;100937.69;;;20.56;42.62
7200;BME280;3641;49.082;8.200;2023-05-25T11:15:10;100939.06;;;20.65;42.37
7200;BME280;3641;49.082;8.200;2023-05-25T11:17:59;100931.38;;;20.79;43.80
7200;BME280;3641;49.082;8.200;2023-05-25T11:20:28;100928.47;;;20.74;40.92
7200;BME280;3641;49.082;8.200;2023-05-25T11:22:56;100937.28;;;20.71;41.96
7200;BME280;3641;49.082;8.200;2023-05-25T11:25:37;100932.56;;;20.83;41.31
7200;BME280;3641;49.082;8.200;2023-05-25T11:28:06;100925.00;;;20.91;40.59
7200;BME280;3641;49.082;8.200;2023-05-25T11:30:35;100934.75;;;20.81;41.23
7200;BME280;3641;49.082;8.200;2023-05-25T11:33:02;100928.72;;;20.96;41.47
7200;BME280;3641;49.082;8.200;2023-05-25T11:35:30;100922.69;;;20.88;43.57
7200;BME280;3641;49.082;8.200;2023-05-25T11:38:03;100927.16;;;21.00;43.59
7200;BME280;3641;49.082;8.200;2023-05-25T11:40:31;100919.31;;;20.97;43.03
7200;BME280;3641;49.082;8.200;2023-05-25T11:42:58;100915.84;;;20.90;45.49
7200;BME280;3641;49.082;8.200;2023-05-25T11:45:28;100904.22;;;21.29;41.06
7200;BME280;3641;49.082;8.200;2023-05-25T11:47:56;100908.59;;;21.13;40.91
7200;BME280;3641;49.082;8.200;2023-05-25T11:50:23;100904.59;;;21.32;41.43
7200;BME280;3641;49.082;8.200;2023-05-25T11:52:50;100911.09;;;21.26;40.27
7200;BME280;3641;49.082;8.200;2023-05-25T11:55:16;100902.19;;;21.00;41.39
7200;BME280;3641;49.082;8.200;2023-05-25T11:57:43;100901.47;;;21.29;40.44
7200;BME280;3641;49.082;8.200;2023-05-25T12:00:11;100900.72;;;21.33;41.47
7200;BME280;3641;49.082;8.200;2023-05-25T12:02:40;100898.19;;;21.32;40.68
7200;BME280;3641;49.082;8.200;2023-05-25T12:05:07;100900.34;;;21.41;42.21
7200;BME280;3641;49.082;8.200;2023-05-25T12:07:41;100907.25;;;21.27;41.74
7200;BME280;3641;49.082;8.200;2023-05-25T12:10:09;100896.63;;;21.24;44.46
7200;BME280;3641;49.082;8.200;2023-05-25T12:12:40;100897.06;;;21.56;42.52
7200;BME280;3641;49.082;8.200;2023-05-25T12:15:08;100908.94;;;21.40;43.79
7200;BME280;3641;49.082;8.200;2023-05-25T12:17:35;100894.91;;;21.47;40.88
7200;BME280;3641;49.082;8.200;2023-05-25T12:20:04;100893.09;;;21.40;43.85
7200;BME280;3641;49.082;8.200;2023-05-25T12:22:32;100901.78;;;21.44;43.25
7200;BME280;3641;49.082;8.200;2023-05-25T12:24:58;100896.47;;;21.42;43.36
7200;BME280;3641;49.082;8.200;2023-05-25T12:27:25;100890.69;;;21.32;41.47
7200;BME280;3641;49.082;8.200;2023-05-25T12:29:52;100900.94;;;21.55;40.60
7200;BME280;3641;49.082;8.200;2023-05-25T12:32:18;100900.34;;;21.41;42.29
7200;BME280;3641;49.082;8.200;2023-05-25T12:34:45;100890.44;;;21.34;44.97
7200;BME280;3641;49.082;8.200;2023-05-25T12:37:18;100890.34;;;21.29;43.17
7200;BME280;3641;49.082;8.200;2023-05-25T12:39:45;100888.88;;;21.26;41.99
7200;BME280;3641;49.082;8.200;2023-05-25T12:42:13;100887.91;;;21.56;41.51
7200;BME280;3641;49.082;8.200;2023-05-25T12:44:40;100884.88;;;21.57;43.59
7200;BME280;3641;49.082;8.200;2023-05-25T12:47:09;100890.78;;;21.61;41.49
7200;BME280;3641;49.082;8.200;2023-05-25T12:49:37;100888.69;;;21.80;40.69
7200;BME280;3641;49.082;8.200;2023-05-25T12:52:04;100883.09;;;21.51;44.64
7200;BME280;3641;49.082;8.200;2023-05-25T12:54:43;100881.56;;;21.72;39.95
7200;BME280;3641;49.082;8.200;2023-05-25T12:57:11;100885.19;;;21.73;39.14
7200;BME280;3641;49.082;8.200;2023-05-25T12:59:39;100889.66;;;21.74;41.46
7200;BME280;3641;49.082;8.200;2023-05-25T13:02:07;100887.34;;;21.83;43.18
7200;BME280;3641;49.082;8.200;2023-05-25T13:04:35;100896.03;;;21.86;40.56
7200;BME280;3641;49.082;8.200;2023-05-25T13:07:02;100887.28;;;21.94;38.93
7200;BME280;3641;49.082;8.200;2023-05-25T13:09:29;100879.78;;;21.95;40.65
7200;BME280;3641;49.082;8.200;2023-05-25T13:11:58;100880.28;;;21.92;41.47
7200;BME280;3641;49.082;8.200;2023-05-25T13:14:27;100874.53;;;21.82;39.84
7200;BME280;3641;49.082;8.200;2023-05-25T13:16:54;100879.84;;;22.12;39.25